createdAt,value
2022-12-18T00:01:26.684Z,40.53
2022-12-18T00:03:55.793Z,38.42
2022-12-18T00:06:26.309Z,43.38
2022-12-18T00:08:54.263Z,44.00
2022-12-18T00:11:23.661Z,41.72
2022-12-18T00:13:51.308Z,39.33
2022-12-18T00:16:22.484Z,41.88
2022-12-18T00:18:51.269Z,46.37
2022-12-18T00:21:19.712Z,41.65
2022-12-18T00:23:47.902Z,45.47
2022-12-18T00:26:26.708Z,42.38
2022-12-18T00:28:57.612Z,41.92
2022-12-18T00:31:25.708Z,41.72
2022-12-18T00:33:57.747Z,42.08
2022-12-18T00:36:31.335Z,37.17
2022-12-18T00:39:00.446Z,42.55
2022-12-18T00:41:47.253Z,44.70
2022-12-18T00:44:16.728Z,43.15
2022-12-18T00:46:45.163Z,41.40
2022-12-18T00:49:12.652Z,40.65
2022-12-18T00:51:40.351Z,42.17
2022-12-18T00:54:08.099Z,47.65
2022-12-18T00:56:45.722Z,45.45
2022-12-18T00:59:17.001Z,40.60
2022-12-18T01:01:44.727Z,39.67
2022-12-18T01:04:12.625Z,42.83
2022-12-18T01:06:40.966Z,43.40
2022-12-18T01:09:08.345Z,45.05
2022-12-18T01:11:37.443Z,42.78
2022-12-18T01:14:05.512Z,40.55
2022-12-18T01:16:32.931Z,44.15
2022-12-18T01:19:00.289Z,41.80
2022-12-18T01:21:28.427Z,42.97
2022-12-18T01:23:57.296Z,42.62
2022-12-18T01:26:25.381Z,44.90
2022-12-18T01:28:54.707Z,42.85
2022-12-18T01:31:25.705Z,41.70
2022-12-18T01:33:53.916Z,40.15
2022-12-18T01:36:26.997Z,43.83
2022-12-18T01:38:55.243Z,38.40
2022-12-18T01:41:25.107Z,42.00
2022-12-18T01:43:56.009Z,41.63
2022-12-18T01:46:24.691Z,40.08
2022-12-18T01:48:56.262Z,42.67
2022-12-18T01:51:25.361Z,45.25
2022-12-18T01:53:52.812Z,40.75
2022-12-18T01:56:21.917Z,41.67
2022-12-18T01:59:16.992Z,39.88
2022-12-18T02:01:44.461Z,40.53
2022-12-18T02:04:21.827Z,43.00
2022-12-18T02:06:53.186Z,41.67
2022-12-18T02:09:27.701Z,41.87
2022-12-18T02:12:04.517Z,38.88
2022-12-18T02:14:39.692Z,41.67
2022-12-18T02:17:20.681Z,45.40
2022-12-18T02:19:50.903Z,44.35
2022-12-18T02:22:28.502Z,42.13
2022-12-18T02:25:09.553Z,42.53
2022-12-18T02:27:38.279Z,40.15
2022-12-18T02:30:07.113Z,45.30
2022-12-18T02:32:41.505Z,37.53
2022-12-18T02:35:14.862Z,40.35
2022-12-18T02:37:44.221Z,40.90
2022-12-18T02:40:13.743Z,38.72
2022-12-18T02:42:41.384Z,45.75
2022-12-18T02:45:09.362Z,43.35
2022-12-18T02:47:39.842Z,43.00
2022-12-18T02:50:25.950Z,44.92
2022-12-18T02:53:12.626Z,40.78
2022-12-18T02:56:02.061Z,37.75
2022-12-18T02:58:48.931Z,46.75
2022-12-18T03:01:22.972Z,42.42
2022-12-18T03:03:58.848Z,45.28
2022-12-18T03:06:31.536Z,41.00
2022-12-18T03:09:03.918Z,42.78
2022-12-18T03:11:53.718Z,42.55
2022-12-18T03:14:23.262Z,42.60
2022-12-18T03:16:54.483Z,45.15
2022-12-18T03:19:24.679Z,42.75
2022-12-18T03:21:55.459Z,40.22
2022-12-18T03:24:25.639Z,44.85
2022-12-18T03:27:01.106Z,43.50
2022-12-18T03:29:34.543Z,37.42
2022-12-18T03:32:32.223Z,40.67
2022-12-18T03:35:04.014Z,42.05
2022-12-18T03:37:32.571Z,43.85
2022-12-18T03:40:00.484Z,42.67
2022-12-18T03:42:34.090Z,39.05
2022-12-18T03:45:10.485Z,42.78
2022-12-18T03:48:00.200Z,44.25
2022-12-18T03:50:48.206Z,41.37
2022-12-18T03:53:30.188Z,41.85
2022-12-18T03:56:00.210Z,39.20
2022-12-18T03:58:33.890Z,43.30
2022-12-18T04:01:07.161Z,45.05
2022-12-18T04:03:36.636Z,40.97
2022-12-18T04:06:04.444Z,47.50
2022-12-18T04:08:34.320Z,40.63
2022-12-18T04:11:02.960Z,41.65
2022-12-18T04:13:35.416Z,40.53
2022-12-18T04:18:31.096Z,43.75
2022-12-18T04:21:00.502Z,39.65
2022-12-18T04:23:29.408Z,42.72
2022-12-18T04:25:57.230Z,42.22
2022-12-18T04:28:27.219Z,40.55
2022-12-18T04:30:55.093Z,36.88
2022-12-18T04:33:23.027Z,44.17
2022-12-18T04:35:50.510Z,40.95
2022-12-18T04:38:18.543Z,42.08
2022-12-18T04:40:46.853Z,46.42
2022-12-18T04:43:15.596Z,41.70
2022-12-18T04:45:43.252Z,39.53
2022-12-18T04:48:10.603Z,43.28
2022-12-18T04:50:38.230Z,38.55
2022-12-18T04:53:05.873Z,44.03
2022-12-18T04:55:33.344Z,41.15
2022-12-18T04:58:00.878Z,40.40
2022-12-18T05:00:28.773Z,47.00
2022-12-18T05:02:56.561Z,44.78
2022-12-18T05:05:24.011Z,41.42
2022-12-18T05:07:51.594Z,40.95
2022-12-18T05:10:19.128Z,43.17
2022-12-18T05:12:59.074Z,39.85
2022-12-18T05:15:32.470Z,46.10
2022-12-18T05:18:00.444Z,40.67
2022-12-18T05:20:28.987Z,39.08
2022-12-18T05:22:56.845Z,45.38
2022-12-18T05:25:24.386Z,43.63
2022-12-18T05:27:52.035Z,42.03
2022-12-18T05:30:19.370Z,42.47
2022-12-18T05:32:46.907Z,42.38
2022-12-18T05:35:14.483Z,43.05
2022-12-18T05:37:43.487Z,43.47
2022-12-18T05:40:12.031Z,39.05
2022-12-18T05:42:39.688Z,41.83
2022-12-18T05:45:07.542Z,42.38
2022-12-18T05:47:34.947Z,46.78
2022-12-18T05:50:02.611Z,41.37
2022-12-18T05:52:30.016Z,41.80
2022-12-18T05:54:57.320Z,44.28
2022-12-18T05:57:24.926Z,42.55
2022-12-18T05:59:52.380Z,41.92
2022-12-18T06:02:21.936Z,41.08
2022-12-18T06:04:49.634Z,44.80
2022-12-18T06:07:16.954Z,40.65
2022-12-18T06:09:44.600Z,45.97
2022-12-18T06:12:12.219Z,44.63
2022-12-18T06:14:40.018Z,37.58
2022-12-18T06:17:07.337Z,44.53
2022-12-18T06:19:34.915Z,40.65
2022-12-18T06:22:02.300Z,47.40
2022-12-18T06:24:29.728Z,48.42
2022-12-18T06:26:57.347Z,46.37
2022-12-18T06:29:24.668Z,41.83
2022-12-18T06:31:52.170Z,43.92
2022-12-18T06:34:19.954Z,45.80
2022-12-18T06:36:47.264Z,47.03
2022-12-18T06:39:14.650Z,44.03
2022-12-18T06:41:42.350Z,41.20
2022-12-18T06:44:09.712Z,48.65
2022-12-18T06:46:38.930Z,37.17
2022-12-18T06:49:06.649Z,48.80
2022-12-18T06:51:34.054Z,47.60
2022-12-18T06:54:01.448Z,41.42
2022-12-18T06:56:29.134Z,43.90
2022-12-18T06:58:56.507Z,42.80
2022-12-18T07:01:23.914Z,43.00
2022-12-18T07:03:55.803Z,48.08
2022-12-18T07:06:24.850Z,54.10
2022-12-18T07:08:53.291Z,57.22
2022-12-18T07:11:21.086Z,53.10
2022-12-18T07:13:48.516Z,52.67
2022-12-18T07:16:24.265Z,48.55
2022-12-18T07:18:53.215Z,49.22
2022-12-18T07:21:20.963Z,41.28
2022-12-18T07:23:49.270Z,43.33
2022-12-18T07:26:19.165Z,46.50
2022-12-18T07:28:47.299Z,42.40
2022-12-18T07:31:20.216Z,47.50
2022-12-18T07:33:50.020Z,45.50
2022-12-18T07:36:17.461Z,48.65
2022-12-18T07:38:48.080Z,48.95
2022-12-18T07:41:16.227Z,45.55
2022-12-18T07:43:44.412Z,44.30
2022-12-18T07:46:14.658Z,44.60
2022-12-18T07:48:44.279Z,45.63
2022-12-18T07:51:17.170Z,47.00
2022-12-18T07:53:46.274Z,50.53
2022-12-18T07:56:31.228Z,42.62
2022-12-18T07:59:00.044Z,49.60
2022-12-18T08:01:28.012Z,53.25
2022-12-18T08:03:55.893Z,47.95
2022-12-18T08:06:24.511Z,49.92
2022-12-18T08:08:53.799Z,47.45
2022-12-18T08:11:22.362Z,55.45
2022-12-18T08:13:49.759Z,53.97
2022-12-18T08:16:17.782Z,54.30
2022-12-18T08:18:45.473Z,48.35
2022-12-18T08:21:18.071Z,52.08
2022-12-18T08:23:46.313Z,54.83
2022-12-18T08:26:14.475Z,50.95
2022-12-18T08:28:41.876Z,48.40
2022-12-18T08:31:10.195Z,49.65
2022-12-18T08:33:38.856Z,52.88
2022-12-18T08:36:07.503Z,54.00
2022-12-18T08:38:35.387Z,44.80
2022-12-18T08:41:07.975Z,48.42
2022-12-18T08:43:54.391Z,44.97
2022-12-18T08:46:23.021Z,45.55
2022-12-18T08:48:54.624Z,51.80
2022-12-18T08:51:22.056Z,47.10
2022-12-18T08:53:49.532Z,45.10
2022-12-18T08:56:17.667Z,47.47
2022-12-18T08:58:45.212Z,40.58
2022-12-18T09:01:13.739Z,45.97
2022-12-18T09:03:41.731Z,49.00
2022-12-18T09:06:09.439Z,43.53
2022-12-18T09:08:38.112Z,43.22
2022-12-18T09:11:06.119Z,43.25
2022-12-18T09:13:33.418Z,46.47
2022-12-18T09:16:00.953Z,43.38
2022-12-18T09:18:28.519Z,43.83
2022-12-18T09:20:55.968Z,42.25
2022-12-18T09:23:23.287Z,46.05
2022-12-18T09:25:50.859Z,43.78
2022-12-18T09:28:19.954Z,39.22
2022-12-18T09:30:50.910Z,43.83
2022-12-18T09:33:18.750Z,42.85
2022-12-18T09:35:47.166Z,41.45
2022-12-18T09:38:16.743Z,47.80
2022-12-18T09:40:46.863Z,40.72
2022-12-18T09:43:22.787Z,43.58
2022-12-18T09:45:56.404Z,39.88
2022-12-18T09:48:28.616Z,41.95
2022-12-18T09:50:59.672Z,44.15
2022-12-18T09:53:29.239Z,44.53
2022-12-18T09:55:57.368Z,44.28
2022-12-18T09:58:45.241Z,43.22
2022-12-18T10:01:15.762Z,41.00
2022-12-18T10:03:45.635Z,40.67
2022-12-18T10:06:19.981Z,45.45
2022-12-18T10:08:56.344Z,45.78
2022-12-18T10:11:39.905Z,41.47
2022-12-18T10:14:15.931Z,42.45
2022-12-18T10:16:51.655Z,41.58
2022-12-18T10:19:35.819Z,43.13
2022-12-18T10:22:31.347Z,38.85
2022-12-18T10:27:34.335Z,38.60
2022-12-18T10:30:09.230Z,44.92
2022-12-18T10:32:36.591Z,40.17
2022-12-18T10:35:04.426Z,38.05
2022-12-18T10:37:31.813Z,57.15
2022-12-18T10:40:21.576Z,44.35
2022-12-18T10:43:12.723Z,40.60
2022-12-18T10:45:40.639Z,39.28
2022-12-18T10:48:24.182Z,43.33
2022-12-18T10:51:13.046Z,45.42
2022-12-18T10:53:42.934Z,42.42
2022-12-18T10:56:10.510Z,44.40
2022-12-18T10:58:39.633Z,42.60
2022-12-18T11:01:21.030Z,44.03
2022-12-18T11:03:51.570Z,38.85
2022-12-18T11:06:22.755Z,37.88
2022-12-18T11:09:01.660Z,41.22
2022-12-18T11:11:30.140Z,43.58
2022-12-18T11:14:12.507Z,37.28
2022-12-18T11:19:39.019Z,32.58
2022-12-18T11:22:28.659Z,34.92
2022-12-18T11:25:33.162Z,38.40
2022-12-18T11:28:05.816Z,39.53
2022-12-18T11:30:35.499Z,33.70
2022-12-18T11:33:07.383Z,29.15
2022-12-18T11:35:57.008Z,29.45
2022-12-18T11:38:27.031Z,29.37
2022-12-18T11:40:59.897Z,31.23
2022-12-18T11:43:30.699Z,27.10
2022-12-18T11:46:13.516Z,32.67
2022-12-18T11:48:46.389Z,31.27
2022-12-18T11:51:23.834Z,32.10
2022-12-18T11:53:54.816Z,38.55
2022-12-18T11:56:37.268Z,37.33
2022-12-18T12:01:50.086Z,28.25
2022-12-18T12:07:36.508Z,26.15
2022-12-18T12:10:09.654Z,27.62
2022-12-18T12:12:49.470Z,25.40
2022-12-18T12:15:40.331Z,26.15
2022-12-18T12:18:39.474Z,23.95
2022-12-18T12:21:33.037Z,26.85
2022-12-18T12:24:03.498Z,28.30
2022-12-18T12:26:46.512Z,26.00
2022-12-18T12:29:46.737Z,28.00
2022-12-18T12:32:29.094Z,25.17
2022-12-18T12:35:19.004Z,26.42
2022-12-18T12:38:11.332Z,21.87
2022-12-18T12:41:00.479Z,21.63
2022-12-18T12:43:37.013Z,24.92
2022-12-18T12:46:11.120Z,25.58
2022-12-18T12:48:48.715Z,27.25
2022-12-18T12:51:33.196Z,29.25
2022-12-18T12:54:02.735Z,33.97
2022-12-18T12:57:17.492Z,30.08
2022-12-18T12:59:59.171Z,28.45
2022-12-18T13:02:32.186Z,24.67
2022-12-18T13:05:19.050Z,32.80
2022-12-18T13:07:59.513Z,31.48
2022-12-18T13:10:32.889Z,28.90
2022-12-18T13:13:17.184Z,27.95
2022-12-18T13:16:03.876Z,31.65
2022-12-18T13:18:31.939Z,30.45
2022-12-18T13:21:03.033Z,33.80
2022-12-18T13:23:32.439Z,40.00
2022-12-18T13:26:09.684Z,35.03
2022-12-18T13:28:46.869Z,44.30
2022-12-18T13:31:15.457Z,33.17
2022-12-18T13:34:16.932Z,36.22
2022-12-18T13:36:35.281Z,33.88
2022-12-18T13:39:35.175Z,37.20
2022-12-18T13:42:06.066Z,35.63
2022-12-18T13:44:40.910Z,36.30
2022-12-18T13:47:35.063Z,32.20
2022-12-18T13:50:11.399Z,35.53
2022-12-18T13:52:40.551Z,33.92
2022-12-18T13:55:16.487Z,34.85
2022-12-18T13:57:44.478Z,33.88
2022-12-18T14:00:24.583Z,44.63
2022-12-18T14:02:52.572Z,37.75
2022-12-18T14:05:34.976Z,37.75
2022-12-18T14:08:11.761Z,35.88
2022-12-18T14:10:48.862Z,41.95
2022-12-18T14:13:30.949Z,45.15
2022-12-18T14:16:03.098Z,43.33
2022-12-18T14:18:56.881Z,42.30
2022-12-18T14:21:33.516Z,35.67
2022-12-18T14:24:28.864Z,41.70
2022-12-18T14:27:14.899Z,38.30
2022-12-18T14:29:44.074Z,39.25
2022-12-18T14:32:18.908Z,41.22
2022-12-18T14:34:48.863Z,46.47
2022-12-18T14:37:21.540Z,44.88
2022-12-18T14:39:59.591Z,46.75
2022-12-18T14:42:30.255Z,52.05
2022-12-18T14:45:41.440Z,63.95
2022-12-18T14:48:15.430Z,66.15
2022-12-18T14:50:56.705Z,66.45
2022-12-18T14:53:33.879Z,81.03
2022-12-18T14:56:02.326Z,83.53
2022-12-18T14:58:29.690Z,75.85
2022-12-18T15:00:57.232Z,78.25
2022-12-18T15:03:25.024Z,68.35
2022-12-18T15:05:53.499Z,74.10
2022-12-18T15:08:37.664Z,70.90
2022-12-18T15:11:28.196Z,73.00
2022-12-18T15:13:55.546Z,74.20
2022-12-18T15:16:23.244Z,79.35
2022-12-18T15:18:50.675Z,84.43
2022-12-18T15:21:20.266Z,90.45
2022-12-18T15:23:50.535Z,80.28
2022-12-18T15:26:19.550Z,88.10
2022-12-18T15:28:53.535Z,81.50
2022-12-18T15:31:23.973Z,77.35
2022-12-18T15:33:54.298Z,77.87
2022-12-18T15:36:26.874Z,76.47
2022-12-18T15:38:55.500Z,71.80
2022-12-18T15:41:36.751Z,78.65
2022-12-18T15:44:20.452Z,98.20
2022-12-18T15:46:48.067Z,107.63
2022-12-18T15:49:15.452Z,117.40
2022-12-18T15:51:42.863Z,125.15
2022-12-18T15:54:13.980Z,116.32
2022-12-18T15:56:59.933Z,115.70
2022-12-18T15:59:27.765Z,109.53
2022-12-18T16:01:55.224Z,115.75
2022-12-18T16:04:24.453Z,114.25
2022-12-18T16:09:40.238Z,105.28
2022-12-18T16:12:09.909Z,99.07
2022-12-18T16:14:37.283Z,105.70
2022-12-18T16:17:10.284Z,117.43
2022-12-18T16:19:37.647Z,119.00
2022-12-18T16:22:05.887Z,124.55
2022-12-18T16:24:37.052Z,131.80
2022-12-18T16:27:04.716Z,140.23
2022-12-18T16:29:32.082Z,181.60
2022-12-18T16:32:00.942Z,194.30
2022-12-18T16:34:35.626Z,247.35
2022-12-18T16:37:06.319Z,242.70
2022-12-18T16:39:35.464Z,271.58
2022-12-18T16:42:05.918Z,246.15
2022-12-18T16:44:34.683Z,253.82
2022-12-18T16:47:03.953Z,269.10
2022-12-18T16:49:31.728Z,277.08
2022-12-18T16:51:59.400Z,275.62
2022-12-18T16:54:26.855Z,306.92
2022-12-18T16:56:54.227Z,349.60
2022-12-18T16:59:21.830Z,349.08
2022-12-18T17:01:49.222Z,308.52
2022-12-18T17:04:17.195Z,243.20
2022-12-18T17:06:45.898Z,232.05
2022-12-18T17:09:15.373Z,199.25
2022-12-18T17:11:43.563Z,165.75
2022-12-18T17:14:14.314Z,155.43
2022-12-18T17:16:41.901Z,145.87
2022-12-18T17:19:15.317Z,174.45
2022-12-18T17:21:47.197Z,130.43
2022-12-18T17:24:14.718Z,121.60
2022-12-18T17:26:42.341Z,118.22
2022-12-18T17:29:14.196Z,152.62
2022-12-18T17:31:41.611Z,143.03
2022-12-18T17:34:11.172Z,144.00
2022-12-18T17:36:39.409Z,143.37
2022-12-18T17:39:07.658Z,120.40
2022-12-18T17:41:35.516Z,115.62
2022-12-18T17:44:05.636Z,104.03
2022-12-18T17:46:34.157Z,93.10
2022-12-18T17:49:02.727Z,89.62
2022-12-18T17:51:30.652Z,88.93
2022-12-18T17:53:58.131Z,87.43
2022-12-18T17:56:26.002Z,74.00
2022-12-18T17:58:53.741Z,70.20
2022-12-18T18:01:23.839Z,85.10
2022-12-18T18:03:53.532Z,87.55
2022-12-18T18:06:22.708Z,73.40
2022-12-18T18:08:50.638Z,71.70
2022-12-18T18:11:38.882Z,67.85
2022-12-18T18:14:10.840Z,64.65
2022-12-18T18:16:42.281Z,69.78
2022-12-18T18:19:15.521Z,69.05
2022-12-18T18:21:44.684Z,69.47
2022-12-18T18:24:17.907Z,61.17
2022-12-18T18:26:49.267Z,62.72
2022-12-18T18:29:18.788Z,60.65
2022-12-18T18:31:47.128Z,63.67
2022-12-18T18:34:19.443Z,73.87
2022-12-18T18:36:47.213Z,65.18
2022-12-18T18:39:14.947Z,70.00
2022-12-18T18:41:46.861Z,86.32
2022-12-18T18:44:17.563Z,87.32
2022-12-18T18:46:45.209Z,95.50
2022-12-18T18:49:13.812Z,85.60
2022-12-18T18:51:42.039Z,90.35
2022-12-18T18:54:09.868Z,87.62
2022-12-18T18:57:04.098Z,86.05
2022-12-18T18:59:31.792Z,76.47
2022-12-18T19:02:04.099Z,77.25
2022-12-18T19:04:33.713Z,84.90
2022-12-18T19:07:01.131Z,81.82
2022-12-18T19:09:28.767Z,80.78
2022-12-18T19:12:16.021Z,88.18
2022-12-18T19:14:44.531Z,78.68
2022-12-18T19:17:12.283Z,86.93
2022-12-18T19:19:39.864Z,79.78
2022-12-18T19:22:07.520Z,81.50
2022-12-18T19:24:35.854Z,72.72
2022-12-18T19:27:03.447Z,80.62
2022-12-18T19:29:30.860Z,96.87
2022-12-18T19:31:58.734Z,112.80
2022-12-18T19:34:26.813Z,113.37
2022-12-18T19:36:59.633Z,102.72
2022-12-18T19:39:27.830Z,119.10
2022-12-18T19:41:55.167Z,103.65
2022-12-18T19:44:22.478Z,100.55
2022-12-18T19:46:51.576Z,97.10
2022-12-18T19:49:18.947Z,91.85
2022-12-18T19:51:46.496Z,83.72
2022-12-18T19:54:16.939Z,80.38
2022-12-18T19:56:45.673Z,88.00
2022-12-18T19:59:13.743Z,83.90
2022-12-18T20:01:41.585Z,80.00
2022-12-18T20:04:09.366Z,89.68
2022-12-18T20:06:47.913Z,90.75
2022-12-18T20:09:15.771Z,92.75
2022-12-18T20:11:44.020Z,85.60
2022-12-18T20:14:12.534Z,88.78
2022-12-18T20:16:40.730Z,86.97
2022-12-18T20:19:08.674Z,89.20
2022-12-18T20:21:36.917Z,87.10
2022-12-18T20:24:04.927Z,86.70
2022-12-18T20:26:32.466Z,84.82
2022-12-18T20:28:59.902Z,88.35
2022-12-18T20:31:27.514Z,82.85
2022-12-18T20:34:00.334Z,88.87
2022-12-18T20:36:30.715Z,83.07
2022-12-18T20:39:01.824Z,80.93
2022-12-18T20:44:08.506Z,70.47
2022-12-18T20:46:46.618Z,81.47
2022-12-18T20:49:13.939Z,82.32
2022-12-18T20:51:41.305Z,88.15
2022-12-18T20:54:11.742Z,84.25
2022-12-18T20:56:39.376Z,92.15
2022-12-18T20:59:07.299Z,83.97
2022-12-18T21:01:35.049Z,85.95
2022-12-18T21:04:03.803Z,85.40
2022-12-18T21:06:31.618Z,80.65
2022-12-18T21:08:59.256Z,76.75
2022-12-18T21:11:50.924Z,74.80
2022-12-18T21:14:20.243Z,75.82
2022-12-18T21:16:47.955Z,79.57
2022-12-18T21:19:17.802Z,79.82
2022-12-18T21:21:46.027Z,83.43
2022-12-18T21:24:13.673Z,80.40
2022-12-18T21:26:45.458Z,78.70
2022-12-18T21:29:16.419Z,76.95
2022-12-18T21:31:44.237Z,83.62
2022-12-18T21:34:26.526Z,76.07
2022-12-18T21:39:22.656Z,90.62
2022-12-18T21:42:09.397Z,98.72
2022-12-18T21:44:42.366Z,87.68
2022-12-18T21:47:17.584Z,98.05
2022-12-18T21:49:51.927Z,93.22
2022-12-18T21:52:20.421Z,86.10
2022-12-18T21:54:52.187Z,83.60
2022-12-18T21:57:19.585Z,80.07
2022-12-18T21:59:46.940Z,72.95
2022-12-18T22:02:17.378Z,78.35
2022-12-18T22:04:46.849Z,77.53
2022-12-18T22:07:15.791Z,74.05
2022-12-18T22:09:43.228Z,83.55
2022-12-18T22:12:13.217Z,83.75
2022-12-18T22:14:40.572Z,82.82
2022-12-18T22:17:07.904Z,81.45
2022-12-18T22:19:42.708Z,78.57
2022-12-18T22:22:10.467Z,83.57
2022-12-18T22:24:38.083Z,85.35
2022-12-18T22:27:05.643Z,77.30
2022-12-18T22:29:51.939Z,78.53
2022-12-18T22:32:30.879Z,83.70
2022-12-18T22:35:05.819Z,78.10
2022-12-18T22:37:36.008Z,74.15
2022-12-18T22:40:06.174Z,88.55
2022-12-18T22:42:35.061Z,87.03
2022-12-18T22:45:02.668Z,87.15
2022-12-18T22:47:30.903Z,86.25
2022-12-18T22:49:58.505Z,86.80
2022-12-18T22:52:26.176Z,94.20
2022-12-18T22:54:54.422Z,88.30
2022-12-18T22:57:22.784Z,90.45
2022-12-18T22:59:50.899Z,91.15
2022-12-18T23:02:19.038Z,83.95
2022-12-18T23:04:47.651Z,85.50
2022-12-18T23:07:16.391Z,79.12
2022-12-18T23:09:44.144Z,79.22
2022-12-18T23:12:16.832Z,86.22
2022-12-18T23:14:44.991Z,77.70
2022-12-18T23:17:12.300Z,81.80
2022-12-18T23:19:44.064Z,86.03
2022-12-18T23:22:14.910Z,80.78
2022-12-18T23:24:42.285Z,79.12
2022-12-18T23:27:11.731Z,85.22
2022-12-18T23:29:40.637Z,83.28
2022-12-18T23:32:08.366Z,84.32
2022-12-18T23:34:35.719Z,90.35
2022-12-18T23:37:03.851Z,83.32
2022-12-18T23:39:31.654Z,86.53
2022-12-18T23:41:59.148Z,86.15
2022-12-18T23:44:27.082Z,81.70
2022-12-18T23:46:55.055Z,85.97
2022-12-18T23:49:22.859Z,79.00
2022-12-18T23:51:50.962Z,81.75
2022-12-18T23:54:18.948Z,81.40
2022-12-18T23:56:56.962Z,87.30
2022-12-18T23:59:25.669Z,82.30
